sensor_id;sensor_type;location;lat;lon;timestamp;P1;durP1;ratioP1;P2;durP2;ratioP2
17214;SDS011;8723;51.502;6.918;2022-07-03T00:00:21;3.70;;;1.70;;
17214;SDS011;8723;51.502;6.918;2022-07-03T00:02:48;2.03;;;1.40;;
17214;SDS011;8723;51.502;6.918;2022-07-03T00:05:15;2.17;;;1.37;;
17214;SDS011;8723;51.502;6.918;2022-07-03T00:07:43;1.88;;;1.60;;
17214;SDS011;8723;51.502;6.918;2022-07-03T00:10:11;1.40;;;1.30;;
17214;SDS011;8723;51.502;6.918;2022-07-03T00:12:38;3.33;;;1.50;;
17214;SDS011;8723;51.502;6.918;2022-07-03T00:15:06;3.88;;;1.40;;
17214;SDS011;8723;51.502;6.918;2022-07-03T00:17:33;2.95;;;1.73;;
17214;SDS011;8723;51.502;6.918;2022-07-03T00:20:01;1.48;;;1.38;;
17214;SDS011;8723;51.502;6.918;2022-07-03T00:22:28;2.00;;;1.27;;
17214;SDS011;8723;51.502;6.918;2022-07-03T00:24:58;3.08;;;1.20;;
17214;SDS011;8723;51.502;6.918;2022-07-03T00:27:29;3.13;;;1.63;;
17214;SDS011;8723;51.502;6.918;2022-07-03T00:29:58;2.03;;;1.50;;
17214;SDS011;8723;51.502;6.918;2022-07-03T00:32:26;2.30;;;1.42;;
17214;SDS011;8723;51.502;6.918;2022-07-03T00:34:54;2.47;;;1.40;;
17214;SDS011;8723;51.502;6.918;2022-07-03T00:37:22;2.77;;;1.50;;
17214;SDS011;8723;51.502;6.918;2022-07-03T00:39:49;2.03;;;1.70;;
17214;SDS011;8723;51.502;6.918;2022-07-03T00:42:17;4.47;;;1.90;;
17214;SDS011;8723;51.502;6.918;2022-07-03T00:44:46;1.45;;;1.35;;
17214;SDS011;8723;51.502;6.918;2022-07-03T00:47:14;2.07;;;1.43;;
17214;SDS011;8723;51.502;6.918;2022-07-03T00:49:43;1.73;;;1.50;;
17214;SDS011;8723;51.502;6.918;2022-07-03T00:52:11;1.55;;;1.40;;
17214;SDS011;8723;51.502;6.918;2022-07-03T00:54:42;2.75;;;1.70;;
17214;SDS011;8723;51.502;6.918;2022-07-03T00:57:12;2.03;;;1.50;;
17214;SDS011;8723;51.502;6.918;2022-07-03T00:59:39;3.40;;;1.60;;
17214;SDS011;8723;51.502;6.918;2022-07-03T01:02:08;2.42;;;1.70;;
17214;SDS011;8723;51.502;6.918;2022-07-03T01:04:40;2.55;;;1.80;;
17214;SDS011;8723;51.502;6.918;2022-07-03T01:07:11;3.40;;;1.88;;
17214;SDS011;8723;51.502;6.918;2022-07-03T01:09:42;1.95;;;1.50;;
17214;SDS011;8723;51.502;6.918;2022-07-03T01:12:14;1.80;;;1.25;;
17214;SDS011;8723;51.502;6.918;2022-07-03T01:14:48;1.98;;;1.38;;
17214;SDS011;8723;51.502;6.918;2022-07-03T01:17:24;1.85;;;1.48;;
17214;SDS011;8723;51.502;6.918;2022-07-03T01:19:53;1.70;;;1.30;;
17214;SDS011;8723;51.502;6.918;2022-07-03T01:22:27;2.47;;;1.60;;
17214;SDS011;8723;51.502;6.918;2022-07-03T01:27:41;1.55;;;1.35;;
17214;SDS011;8723;51.502;6.918;2022-07-03T01:30:11;2.40;;;1.30;;
17214;SDS011;8723;51.502;6.918;2022-07-03T01:32:41;2.47;;;1.55;;
17214;SDS011;8723;51.502;6.918;2022-07-03T01:35:08;2.45;;;1.55;;
17214;SDS011;8723;51.502;6.918;2022-07-03T01:37:38;2.03;;;1.45;;
17214;SDS011;8723;51.502;6.918;2022-07-03T01:40:06;2.95;;;1.73;;
17214;SDS011;8723;51.502;6.918;2022-07-03T01:42:34;2.30;;;2.00;;
17214;SDS011;8723;51.502;6.918;2022-07-03T01:45:05;2.60;;;1.50;;
17214;SDS011;8723;51.502;6.918;2022-07-03T01:47:35;3.03;;;1.70;;
17214;SDS011;8723;51.502;6.918;2022-07-03T01:50:04;2.53;;;1.80;;
17214;SDS011;8723;51.502;6.918;2022-07-03T01:52:31;2.03;;;1.85;;
17214;SDS011;8723;51.502;6.918;2022-07-03T01:54:58;1.77;;;1.67;;
17214;SDS011;8723;51.502;6.918;2022-07-03T01:57:27;2.63;;;1.83;;
17214;SDS011;8723;51.502;6.918;2022-07-03T02:00:05;2.50;;;1.50;;
17214;SDS011;8723;51.502;6.918;2022-07-03T02:02:33;2.58;;;1.70;;
17214;SDS011;8723;51.502;6.918;2022-07-03T02:05:03;3.42;;;1.80;;
17214;SDS011;8723;51.502;6.918;2022-07-03T02:07:35;4.35;;;1.90;;
17214;SDS011;8723;51.502;6.918;2022-07-03T02:10:03;2.22;;;1.50;;
17214;SDS011;8723;51.502;6.918;2022-07-03T02:12:34;2.90;;;1.70;;
17214;SDS011;8723;51.502;6.918;2022-07-03T02:15:05;2.30;;;1.85;;
17214;SDS011;8723;51.502;6.918;2022-07-03T02:17:35;3.13;;;2.00;;
17214;SDS011;8723;51.502;6.918;2022-07-03T02:20:03;2.30;;;1.80;;
17214;SDS011;8723;51.502;6.918;2022-07-03T02:22:33;2.80;;;1.80;;
17214;SDS011;8723;51.502;6.918;2022-07-03T02:25:02;2.47;;;1.88;;
17214;SDS011;8723;51.502;6.918;2022-07-03T02:27:31;2.05;;;1.80;;
17214;SDS011;8723;51.502;6.918;2022-07-03T02:30:01;1.70;;;1.60;;
17214;SDS011;8723;51.502;6.918;2022-07-03T02:32:30;2.97;;;1.77;;
17214;SDS011;8723;51.502;6.918;2022-07-03T02:35:00;1.88;;;1.77;;
17214;SDS011;8723;51.502;6.918;2022-07-03T02:37:29;2.67;;;1.83;;
17214;SDS011;8723;51.502;6.918;2022-07-03T02:40:00;2.47;;;2.00;;
17214;SDS011;8723;51.502;6.918;2022-07-03T02:42:30;2.23;;;1.73;;
17214;SDS011;8723;51.502;6.918;2022-07-03T02:44:59;3.08;;;1.90;;
17214;SDS011;8723;51.502;6.918;2022-07-03T02:47:35;3.00;;;1.70;;
17214;SDS011;8723;51.502;6.918;2022-07-03T02:50:04;4.40;;;2.40;;
17214;SDS011;8723;51.502;6.918;2022-07-03T02:52:42;3.45;;;2.10;;
17214;SDS011;8723;51.502;6.918;2022-07-03T02:55:12;3.10;;;2.00;;
17214;SDS011;8723;51.502;6.918;2022-07-03T02:57:44;3.97;;;2.33;;
17214;SDS011;8723;51.502;6.918;2022-07-03T03:00:11;4.50;;;2.30;;
17214;SDS011;8723;51.502;6.918;2022-07-03T03:02:47;3.27;;;2.30;;
17214;SDS011;8723;51.502;6.918;2022-07-03T03:05:21;2.72;;;2.30;;
17214;SDS011;8723;51.502;6.918;2022-07-03T03:07:52;3.30;;;2.30;;
17214;SDS011;8723;51.502;6.918;2022-07-03T03:10:23;2.80;;;2.15;;
17214;SDS011;8723;51.502;6.918;2022-07-03T03:12:52;2.72;;;2.40;;
17214;SDS011;8723;51.502;6.918;2022-07-03T03:15:22;4.30;;;2.05;;
17214;SDS011;8723;51.502;6.918;2022-07-03T03:17:53;3.22;;;2.33;;
17214;SDS011;8723;51.502;6.918;2022-07-03T03:20:25;5.18;;;2.22;;
17214;SDS011;8723;51.502;6.918;2022-07-03T03:22:59;4.63;;;2.40;;
17214;SDS011;8723;51.502;6.918;2022-07-03T03:25:26;3.53;;;2.22;;
17214;SDS011;8723;51.502;6.918;2022-07-03T03:27:53;3.30;;;2.33;;
17214;SDS011;8723;51.502;6.918;2022-07-03T03:30:20;3.42;;;2.40;;
17214;SDS011;8723;51.502;6.918;2022-07-03T03:32:47;4.68;;;2.45;;
17214;SDS011;8723;51.502;6.918;2022-07-03T03:35:16;3.97;;;2.40;;
17214;SDS011;8723;51.502;6.918;2022-07-03T03:37:44;3.33;;;2.33;;
17214;SDS011;8723;51.502;6.918;2022-07-03T03:40:13;3.53;;;2.47;;
17214;SDS011;8723;51.502;6.918;2022-07-03T03:42:41;3.88;;;2.45;;
17214;SDS011;8723;51.502;6.918;2022-07-03T03:45:09;4.95;;;2.60;;
17214;SDS011;8723;51.502;6.918;2022-07-03T03:47:36;4.18;;;2.50;;
17214;SDS011;8723;51.502;6.918;2022-07-03T03:50:04;4.72;;;2.50;;
17214;SDS011;8723;51.502;6.918;2022-07-03T03:52:32;3.05;;;2.67;;
17214;SDS011;8723;51.502;6.918;2022-07-03T03:55:00;3.45;;;2.63;;
17214;SDS011;8723;51.502;6.918;2022-07-03T03:57:27;3.30;;;2.72;;
17214;SDS011;8723;51.502;6.918;2022-07-03T03:59:54;2.95;;;2.60;;
17214;SDS011;8723;51.502;6.918;2022-07-03T04:02:22;3.78;;;2.55;;
17214;SDS011;8723;51.502;6.918;2022-07-03T04:04:49;3.00;;;2.40;;
17214;SDS011;8723;51.502;6.918;2022-07-03T04:07:16;4.60;;;2.95;;
17214;SDS011;8723;51.502;6.918;2022-07-03T04:09:45;5.65;;;3.00;;
17214;SDS011;8723;51.502;6.918;2022-07-03T04:12:12;3.72;;;2.50;;
17214;SDS011;8723;51.502;6.918;2022-07-03T04:14:39;4.85;;;3.15;;
17214;SDS011;8723;51.502;6.918;2022-07-03T04:17:06;4.93;;;2.92;;
17214;SDS011;8723;51.502;6.918;2022-07-03T04:19:33;4.07;;;3.00;;
17214;SDS011;8723;51.502;6.918;2022-07-03T04:22:01;4.43;;;2.90;;
17214;SDS011;8723;51.502;6.918;2022-07-03T04:24:33;5.20;;;2.87;;
17214;SDS011;8723;51.502;6.918;2022-07-03T04:27:01;3.97;;;2.70;;
17214;SDS011;8723;51.502;6.918;2022-07-03T04:29:29;3.67;;;2.38;;
17214;SDS011;8723;51.502;6.918;2022-07-03T04:31:56;5.13;;;2.70;;
17214;SDS011;8723;51.502;6.918;2022-07-03T04:34:23;4.10;;;2.78;;
17214;SDS011;8723;51.502;6.918;2022-07-03T04:36:50;3.78;;;3.10;;
17214;SDS011;8723;51.502;6.918;2022-07-03T04:39:17;4.63;;;3.10;;
17214;SDS011;8723;51.502;6.918;2022-07-03T04:41:44;7.73;;;3.30;;
17214;SDS011;8723;51.502;6.918;2022-07-03T04:44:13;3.88;;;3.00;;
17214;SDS011;8723;51.502;6.918;2022-07-03T04:46:40;6.35;;;3.05;;
17214;SDS011;8723;51.502;6.918;2022-07-03T04:49:07;6.75;;;3.40;;
17214;SDS011;8723;51.502;6.918;2022-07-03T04:51:34;4.20;;;3.10;;
17214;SDS011;8723;51.502;6.918;2022-07-03T04:54:01;4.53;;;3.40;;
17214;SDS011;8723;51.502;6.918;2022-07-03T04:56:28;4.28;;;3.20;;
17214;SDS011;8723;51.502;6.918;2022-07-03T04:58:56;4.70;;;3.03;;
17214;SDS011;8723;51.502;6.918;2022-07-03T05:01:24;4.05;;;3.10;;
17214;SDS011;8723;51.502;6.918;2022-07-03T05:03:51;4.43;;;3.20;;
17214;SDS011;8723;51.502;6.918;2022-07-03T05:06:18;3.80;;;3.22;;
17214;SDS011;8723;51.502;6.918;2022-07-03T05:08:45;4.00;;;3.20;;
17214;SDS011;8723;51.502;6.918;2022-07-03T05:11:13;3.58;;;3.25;;
17214;SDS011;8723;51.502;6.918;2022-07-03T05:13:40;4.70;;;3.13;;
17214;SDS011;8723;51.502;6.918;2022-07-03T05:16:07;3.95;;;2.97;;
17214;SDS011;8723;51.502;6.918;2022-07-03T05:18:35;3.85;;;3.00;;
17214;SDS011;8723;51.502;6.918;2022-07-03T05:21:02;3.37;;;2.80;;
17214;SDS011;8723;51.502;6.918;2022-07-03T05:23:30;3.28;;;2.78;;
17214;SDS011;8723;51.502;6.918;2022-07-03T05:25:57;3.20;;;3.00;;
17214;SDS011;8723;51.502;6.918;2022-07-03T05:28:24;3.25;;;2.70;;
17214;SDS011;8723;51.502;6.918;2022-07-03T05:30:51;5.50;;;4.00;;
17214;SDS011;8723;51.502;6.918;2022-07-03T05:33:19;6.55;;;3.97;;
17214;SDS011;8723;51.502;6.918;2022-07-03T05:35:47;6.20;;;4.00;;
17214;SDS011;8723;51.502;6.918;2022-07-03T05:38:14;5.45;;;4.57;;
17214;SDS011;8723;51.502;6.918;2022-07-03T05:41:03;6.90;;;5.22;;
17214;SDS011;8723;51.502;6.918;2022-07-03T05:43:30;6.22;;;4.65;;
17214;SDS011;8723;51.502;6.918;2022-07-03T05:45:57;5.22;;;3.72;;
17214;SDS011;8723;51.502;6.918;2022-07-03T05:48:24;3.73;;;3.43;;
17214;SDS011;8723;51.502;6.918;2022-07-03T05:50:53;5.53;;;4.57;;
17214;SDS011;8723;51.502;6.918;2022-07-03T05:53:20;7.35;;;5.43;;
17214;SDS011;8723;51.502;6.918;2022-07-03T05:55:47;5.88;;;5.22;;
17214;SDS011;8723;51.502;6.918;2022-07-03T05:58:14;6.57;;;5.80;;
17214;SDS011;8723;51.502;6.918;2022-07-03T06:00:42;4.28;;;3.72;;
17214;SDS011;8723;51.502;6.918;2022-07-03T06:03:09;5.82;;;3.97;;
17214;SDS011;8723;51.502;6.918;2022-07-03T06:05:36;6.15;;;5.47;;
17214;SDS011;8723;51.502;6.918;2022-07-03T06:08:05;2.60;;;2.40;;
17214;SDS011;8723;51.502;6.918;2022-07-03T06:10:33;2.40;;;2.20;;
17214;SDS011;8723;51.502;6.918;2022-07-03T06:13:00;7.28;;;5.28;;
17214;SDS011;8723;51.502;6.918;2022-07-03T06:15:27;3.13;;;2.58;;
17214;SDS011;8723;51.502;6.918;2022-07-03T06:17:54;2.28;;;2.03;;
17214;SDS011;8723;51.502;6.918;2022-07-03T06:20:21;5.20;;;4.70;;
17214;SDS011;8723;51.502;6.918;2022-07-03T06:22:49;5.43;;;4.50;;
17214;SDS011;8723;51.502;6.918;2022-07-03T06:25:17;4.77;;;4.27;;
17214;SDS011;8723;51.502;6.918;2022-07-03T06:27:44;3.97;;;3.42;;
17214;SDS011;8723;51.502;6.918;2022-07-03T06:30:11;4.88;;;3.92;;
17214;SDS011;8723;51.502;6.918;2022-07-03T06:32:39;5.78;;;4.93;;
17214;SDS011;8723;51.502;6.918;2022-07-03T06:35:06;4.32;;;2.55;;
17214;SDS011;8723;51.502;6.918;2022-07-03T06:37:33;3.03;;;2.10;;
17214;SDS011;8723;51.502;6.918;2022-07-03T06:40:00;3.53;;;2.70;;
17214;SDS011;8723;51.502;6.918;2022-07-03T06:42:29;2.50;;;1.67;;
17214;SDS011;8723;51.502;6.918;2022-07-03T06:44:56;2.42;;;1.92;;
17214;SDS011;8723;51.502;6.918;2022-07-03T06:47:23;4.65;;;3.03;;
17214;SDS011;8723;51.502;6.918;2022-07-03T06:49:50;2.55;;;2.35;;
17214;SDS011;8723;51.502;6.918;2022-07-03T06:52:17;3.17;;;2.50;;
17214;SDS011;8723;51.502;6.918;2022-07-03T06:54:44;3.40;;;2.53;;
17214;SDS011;8723;51.502;6.918;2022-07-03T06:57:12;4.40;;;3.40;;
17214;SDS011;8723;51.502;6.918;2022-07-03T06:59:40;4.97;;;3.37;;
17214;SDS011;8723;51.502;6.918;2022-07-03T07:02:07;7.32;;;4.32;;
17214;SDS011;8723;51.502;6.918;2022-07-03T07:04:34;5.40;;;4.78;;
17214;SDS011;8723;51.502;6.918;2022-07-03T07:07:02;6.07;;;3.80;;
17214;SDS011;8723;51.502;6.918;2022-07-03T07:09:29;4.38;;;3.97;;
17214;SDS011;8723;51.502;6.918;2022-07-03T07:11:56;4.60;;;3.58;;
17214;SDS011;8723;51.502;6.918;2022-07-03T07:14:23;6.15;;;3.45;;
17214;SDS011;8723;51.502;6.918;2022-07-03T07:16:52;2.60;;;2.20;;
17214;SDS011;8723;51.502;6.918;2022-07-03T07:19:19;5.90;;;4.13;;
17214;SDS011;8723;51.502;6.918;2022-07-03T07:21:46;4.27;;;3.23;;
17214;SDS011;8723;51.502;6.918;2022-07-03T07:24:13;5.73;;;3.23;;
17214;SDS011;8723;51.502;6.918;2022-07-03T07:26:40;5.50;;;3.50;;
17214;SDS011;8723;51.502;6.918;2022-07-03T07:29:08;4.13;;;2.92;;
17214;SDS011;8723;51.502;6.918;2022-07-03T07:31:35;3.37;;;2.77;;
17214;SDS011;8723;51.502;6.918;2022-07-03T07:34:03;3.37;;;2.17;;
17214;SDS011;8723;51.502;6.918;2022-07-03T07:36:30;3.70;;;2.03;;
17214;SDS011;8723;51.502;6.918;2022-07-03T07:38:58;5.80;;;3.00;;
17214;SDS011;8723;51.502;6.918;2022-07-03T07:41:25;4.20;;;2.78;;
17214;SDS011;8723;51.502;6.918;2022-07-03T07:43:52;3.37;;;2.77;;
17214;SDS011;8723;51.502;6.918;2022-07-03T07:46:19;4.10;;;2.85;;
17214;SDS011;8723;51.502;6.918;2022-07-03T07:48:47;2.40;;;2.07;;
17214;SDS011;8723;51.502;6.918;2022-07-03T07:51:15;6.65;;;3.20;;
17214;SDS011;8723;51.502;6.918;2022-07-03T07:53:42;7.68;;;3.47;;
17214;SDS011;8723;51.502;6.918;2022-07-03T07:56:09;3.05;;;2.53;;
17214;SDS011;8723;51.502;6.918;2022-07-03T07:58:37;4.22;;;2.50;;
17214;SDS011;8723;51.502;6.918;2022-07-03T08:01:04;4.53;;;3.25;;
17214;SDS011;8723;51.502;6.918;2022-07-03T08:03:48;3.72;;;2.35;;
17214;SDS011;8723;51.502;6.918;2022-07-03T08:06:34;6.10;;;3.00;;
17214;SDS011;8723;51.502;6.918;2022-07-03T08:09:02;4.78;;;2.53;;
17214;SDS011;8723;51.502;6.918;2022-07-03T08:11:29;4.78;;;3.13;;
17214;SDS011;8723;51.502;6.918;2022-07-03T08:13:56;4.40;;;2.83;;
17214;SDS011;8723;51.502;6.918;2022-07-03T08:16:23;3.55;;;2.42;;
17214;SDS011;8723;51.502;6.918;2022-07-03T08:18:50;4.50;;;2.40;;
17214;SDS011;8723;51.502;6.918;2022-07-03T08:21:18;5.50;;;2.60;;
17214;SDS011;8723;51.502;6.918;2022-07-03T08:23:47;2.95;;;2.20;;
17214;SDS011;8723;51.502;6.918;2022-07-03T08:26:14;3.10;;;1.85;;
17214;SDS011;8723;51.502;6.918;2022-07-03T08:28:41;2.78;;;2.08;;
17214;SDS011;8723;51.502;6.918;2022-07-03T08:31:08;4.57;;;2.58;;
17214;SDS011;8723;51.502;6.918;2022-07-03T08:33:35;3.70;;;2.42;;
17214;SDS011;8723;51.502;6.918;2022-07-03T08:36:04;3.00;;;2.20;;
17214;SDS011;8723;51.502;6.918;2022-07-03T08:38:31;2.42;;;2.17;;
17214;SDS011;8723;51.502;6.918;2022-07-03T08:41:01;3.33;;;2.30;;
17214;SDS011;8723;51.502;6.918;2022-07-03T08:43:29;4.55;;;2.70;;
17214;SDS011;8723;51.502;6.918;2022-07-03T08:45:57;3.28;;;2.42;;
17214;SDS011;8723;51.502;6.918;2022-07-03T08:48:25;3.50;;;2.30;;
17214;SDS011;8723;51.502;6.918;2022-07-03T08:50:52;2.33;;;1.90;;
17214;SDS011;8723;51.502;6.918;2022-07-03T08:53:19;2.90;;;1.80;;
17214;SDS011;8723;51.502;6.918;2022-07-03T08:55:47;3.30;;;2.25;;
17214;SDS011;8723;51.502;6.918;2022-07-03T08:58:16;2.78;;;2.13;;
17214;SDS011;8723;51.502;6.918;2022-07-03T09:00:44;3.33;;;2.22;;
17214;SDS011;8723;51.502;6.918;2022-07-03T09:03:12;2.65;;;2.00;;
17214;SDS011;8723;51.502;6.918;2022-07-03T09:05:40;2.10;;;1.80;;
17214;SDS011;8723;51.502;6.918;2022-07-03T09:08:08;3.55;;;2.40;;
17214;SDS011;8723;51.502;6.918;2022-07-03T09:10:36;2.88;;;2.10;;
17214;SDS011;8723;51.502;6.918;2022-07-03T09:13:03;2.45;;;1.75;;
17214;SDS011;8723;51.502;6.918;2022-07-03T09:15:31;2.63;;;2.20;;
17214;SDS011;8723;51.502;6.918;2022-07-03T09:17:59;2.85;;;2.20;;
17214;SDS011;8723;51.502;6.918;2022-07-03T09:20:27;2.87;;;2.30;;
17214;SDS011;8723;51.502;6.918;2022-07-03T09:22:54;5.30;;;2.13;;
17214;SDS011;8723;51.502;6.918;2022-07-03T09:25:34;2.90;;;1.95;;
17214;SDS011;8723;51.502;6.918;2022-07-03T09:28:02;2.95;;;1.77;;
17214;SDS011;8723;51.502;6.918;2022-07-03T09:30:29;3.08;;;2.00;;
17214;SDS011;8723;51.502;6.918;2022-07-03T09:32:57;2.53;;;1.90;;
17214;SDS011;8723;51.502;6.918;2022-07-03T09:35:25;4.20;;;2.15;;
17214;SDS011;8723;51.502;6.918;2022-07-03T09:37:54;2.40;;;1.77;;
17214;SDS011;8723;51.502;6.918;2022-07-03T09:40:21;3.88;;;2.30;;
17214;SDS011;8723;51.502;6.918;2022-07-03T09:45:49;2.95;;;2.22;;
17214;SDS011;8723;51.502;6.918;2022-07-03T09:48:21;3.80;;;2.40;;
17214;SDS011;8723;51.502;6.918;2022-07-03T09:50:48;5.40;;;2.60;;
17214;SDS011;8723;51.502;6.918;2022-07-03T09:53:16;3.87;;;2.17;;
17214;SDS011;8723;51.502;6.918;2022-07-03T09:55:44;3.07;;;2.17;;
17214;SDS011;8723;51.502;6.918;2022-07-03T09:58:22;3.47;;;2.43;;
17214;SDS011;8723;51.502;6.918;2022-07-03T10:01:36;2.30;;;2.10;;
17214;SDS011;8723;51.502;6.918;2022-07-03T10:04:10;3.03;;;2.40;;
17214;SDS011;8723;51.502;6.918;2022-07-03T10:06:51;3.17;;;1.98;;
17214;SDS011;8723;51.502;6.918;2022-07-03T10:09:19;3.75;;;2.00;;
17214;SDS011;8723;51.502;6.918;2022-07-03T10:11:46;3.63;;;1.90;;
17214;SDS011;8723;51.502;6.918;2022-07-03T10:14:14;3.25;;;1.75;;
17214;SDS011;8723;51.502;6.918;2022-07-03T10:16:43;2.03;;;1.83;;
17214;SDS011;8723;51.502;6.918;2022-07-03T10:19:12;2.58;;;1.88;;
17214;SDS011;8723;51.502;6.918;2022-07-03T10:21:40;1.63;;;1.52;;
17214;SDS011;8723;51.502;6.918;2022-07-03T10:24:08;1.60;;;1.50;;
17214;SDS011;8723;51.502;6.918;2022-07-03T10:26:35;2.17;;;1.75;;
17214;SDS011;8723;51.502;6.918;2022-07-03T10:29:02;2.73;;;1.67;;
17214;SDS011;8723;51.502;6.918;2022-07-03T10:31:31;4.18;;;2.10;;
17214;SDS011;8723;51.502;6.918;2022-07-03T10:34:00;2.10;;;1.73;;
17214;SDS011;8723;51.502;6.918;2022-07-03T10:36:27;2.67;;;1.90;;
17214;SDS011;8723;51.502;6.918;2022-07-03T10:38:55;3.65;;;1.83;;
17214;SDS011;8723;51.502;6.918;2022-07-03T10:41:25;1.70;;;1.60;;
17214;SDS011;8723;51.502;6.918;2022-07-03T10:44:12;3.05;;;1.77;;
17214;SDS011;8723;51.502;6.918;2022-07-03T10:46:57;2.65;;;1.90;;
17214;SDS011;8723;51.502;6.918;2022-07-03T10:49:26;3.33;;;1.60;;
17214;SDS011;8723;51.502;6.918;2022-07-03T10:51:54;2.42;;;1.70;;
17214;SDS011;8723;51.502;6.918;2022-07-03T10:54:22;2.30;;;1.63;;
17214;SDS011;8723;51.502;6.918;2022-07-03T10:57:05;2.35;;;1.50;;
17214;SDS011;8723;51.502;6.918;2022-07-03T11:02:18;3.40;;;1.65;;
17214;SDS011;8723;51.502;6.918;2022-07-03T11:05:04;2.33;;;1.97;;
17214;SDS011;8723;51.502;6.918;2022-07-03T11:07:34;2.92;;;1.35;;
17214;SDS011;8723;51.502;6.918;2022-07-03T11:12:53;1.75;;;1.48;;
17214;SDS011;8723;51.502;6.918;2022-07-03T11:15:27;3.08;;;1.73;;
17214;SDS011;8723;51.502;6.918;2022-07-03T11:21:00;2.13;;;1.48;;
17214;SDS011;8723;51.502;6.918;2022-07-03T11:23:32;2.38;;;1.55;;
17214;SDS011;8723;51.502;6.918;2022-07-03T11:26:01;2.10;;;1.45;;
17214;SDS011;8723;51.502;6.918;2022-07-03T11:28:47;3.17;;;1.60;;
17214;SDS011;8723;51.502;6.918;2022-07-03T11:31:15;3.55;;;1.70;;
17214;SDS011;8723;51.502;6.918;2022-07-03T11:33:43;3.22;;;1.70;;
17214;SDS011;8723;51.502;6.918;2022-07-03T11:36:12;3.50;;;1.60;;
17214;SDS011;8723;51.502;6.918;2022-07-03T11:38:53;2.97;;;2.00;;
17214;SDS011;8723;51.502;6.918;2022-07-03T11:41:30;1.85;;;1.40;;
17214;SDS011;8723;51.502;6.918;2022-07-03T11:43:57;2.58;;;1.83;;
17214;SDS011;8723;51.502;6.918;2022-07-03T11:46:27;2.58;;;1.55;;
17214;SDS011;8723;51.502;6.918;2022-07-03T11:49:03;2.23;;;1.53;;
17214;SDS011;8723;51.502;6.918;2022-07-03T11:51:32;1.67;;;1.50;;
17214;SDS011;8723;51.502;6.918;2022-07-03T11:53:59;3.13;;;1.80;;
17214;SDS011;8723;51.502;6.918;2022-07-03T11:56:26;3.13;;;1.60;;
17214;SDS011;8723;51.502;6.918;2022-07-03T11:58:54;2.42;;;1.33;;
17214;SDS011;8723;51.502;6.918;2022-07-03T12:01:31;1.42;;;1.20;;
17214;SDS011;8723;51.502;6.918;2022-07-03T12:04:02;4.50;;;2.22;;
17214;SDS011;8723;51.502;6.918;2022-07-03T12:06:34;3.00;;;1.80;;
17214;SDS011;8723;51.502;6.918;2022-07-03T12:09:01;2.27;;;1.50;;
17214;SDS011;8723;51.502;6.918;2022-07-03T12:11:28;2.03;;;1.73;;
17214;SDS011;8723;51.502;6.918;2022-07-03T12:13:56;3.22;;;2.22;;
17214;SDS011;8723;51.502;6.918;2022-07-03T12:16:31;2.38;;;1.40;;
17214;SDS011;8723;51.502;6.918;2022-07-03T12:19:03;2.33;;;1.30;;
17214;SDS011;8723;51.502;6.918;2022-07-03T12:21:35;3.08;;;1.70;;
17214;SDS011;8723;51.502;6.918;2022-07-03T12:24:08;3.53;;;1.67;;
17214;SDS011;8723;51.502;6.918;2022-07-03T12:26:35;3.87;;;1.50;;
17214;SDS011;8723;51.502;6.918;2022-07-03T12:29:03;2.60;;;1.55;;
17214;SDS011;8723;51.502;6.918;2022-07-03T12:31:30;2.28;;;1.33;;
17214;SDS011;8723;51.502;6.918;2022-07-03T12:33:58;2.13;;;1.33;;
17214;SDS011;8723;51.502;6.918;2022-07-03T12:36:26;2.83;;;1.27;;
17214;SDS011;8723;51.502;6.918;2022-07-03T12:38:54;2.33;;;1.48;;
17214;SDS011;8723;51.502;6.918;2022-07-03T12:41:22;2.10;;;1.25;;
17214;SDS011;8723;51.502;6.918;2022-07-03T12:43:50;2.00;;;1.50;;
17214;SDS011;8723;51.502;6.918;2022-07-03T12:46:19;2.05;;;1.50;;
17214;SDS011;8723;51.502;6.918;2022-07-03T12:48:46;1.60;;;1.20;;
17214;SDS011;8723;51.502;6.918;2022-07-03T12:51:14;1.20;;;1.10;;
17214;SDS011;8723;51.502;6.918;2022-07-03T12:53:41;2.72;;;1.42;;
17214;SDS011;8723;51.502;6.918;2022-07-03T12:56:09;2.92;;;1.50;;
17214;SDS011;8723;51.502;6.918;2022-07-03T12:58:39;1.88;;;1.27;;
17214;SDS011;8723;51.502;6.918;2022-07-03T13:01:24;2.55;;;1.60;;
17214;SDS011;8723;51.502;6.918;2022-07-03T13:03:52;2.50;;;1.30;;
17214;SDS011;8723;51.502;6.918;2022-07-03T13:06:19;1.23;;;1.10;;
17214;SDS011;8723;51.502;6.918;2022-07-03T13:08:54;1.67;;;1.30;;
17214;SDS011;8723;51.502;6.918;2022-07-03T13:11:28;1.42;;;1.15;;
17214;SDS011;8723;51.502;6.918;2022-07-03T13:14:02;1.20;;;1.10;;
17214;SDS011;8723;51.502;6.918;2022-07-03T13:16:34;3.35;;;1.50;;
17214;SDS011;8723;51.502;6.918;2022-07-03T13:19:03;2.65;;;1.25;;
17214;SDS011;8723;51.502;6.918;2022-07-03T13:21:31;2.97;;;1.50;;
17214;SDS011;8723;51.502;6.918;2022-07-03T13:23:58;1.55;;;1.08;;
17214;SDS011;8723;51.502;6.918;2022-07-03T13:26:25;1.42;;;1.30;;
17214;SDS011;8723;51.502;6.918;2022-07-03T13:28:52;1.95;;;1.23;;
17214;SDS011;8723;51.502;6.918;2022-07-03T13:31:21;2.42;;;1.40;;
17214;SDS011;8723;51.502;6.918;2022-07-03T13:33:48;2.03;;;1.33;;
17214;SDS011;8723;51.502;6.918;2022-07-03T13:36:15;2.53;;;1.30;;
17214;SDS011;8723;51.502;6.918;2022-07-03T13:38:43;1.85;;;1.50;;
17214;SDS011;8723;51.502;6.918;2022-07-03T13:41:10;1.45;;;1.20;;
17214;SDS011;8723;51.502;6.918;2022-07-03T13:43:37;1.67;;;1.33;;
17214;SDS011;8723;51.502;6.918;2022-07-03T13:46:04;2.42;;;1.55;;
17214;SDS011;8723;51.502;6.918;2022-07-03T13:48:33;2.30;;;1.15;;
17214;SDS011;8723;51.502;6.918;2022-07-03T13:51:00;1.95;;;1.30;;
17214;SDS011;8723;51.502;6.918;2022-07-03T13:53:27;1.75;;;1.30;;
17214;SDS011;8723;51.502;6.918;2022-07-03T13:55:55;3.95;;;1.50;;
17214;SDS011;8723;51.502;6.918;2022-07-03T13:58:23;2.70;;;1.50;;
17214;SDS011;8723;51.502;6.918;2022-07-03T14:00:51;2.22;;;1.70;;
17214;SDS011;8723;51.502;6.918;2022-07-03T14:03:18;2.22;;;1.30;;
17214;SDS011;8723;51.502;6.918;2022-07-03T14:05:47;2.55;;;1.20;;
17214;SDS011;8723;51.502;6.918;2022-07-03T14:08:16;1.17;;;1.08;;
17214;SDS011;8723;51.502;6.918;2022-07-03T14:10:43;1.40;;;1.20;;
17214;SDS011;8723;51.502;6.918;2022-07-03T14:13:10;3.22;;;1.40;;
17214;SDS011;8723;51.502;6.918;2022-07-03T14:15:37;1.60;;;1.30;;
17214;SDS011;8723;51.502;6.918;2022-07-03T14:18:04;2.23;;;1.20;;
17214;SDS011;8723;51.502;6.918;2022-07-03T14:20:32;1.83;;;1.10;;
17214;SDS011;8723;51.502;6.918;2022-07-03T14:23:00;1.55;;;1.00;;
17214;SDS011;8723;51.502;6.918;2022-07-03T14:25:27;1.23;;;1.00;;
17214;SDS011;8723;51.502;6.918;2022-07-03T14:27:55;1.80;;;1.10;;
17214;SDS011;8723;51.502;6.918;2022-07-03T14:30:40;1.85;;;1.10;;
17214;SDS011;8723;51.502;6.918;2022-07-03T14:33:24;2.22;;;1.35;;
17214;SDS011;8723;51.502;6.918;2022-07-03T14:35:51;2.55;;;1.40;;
17214;SDS011;8723;51.502;6.918;2022-07-03T14:38:20;1.60;;;1.30;;
17214;SDS011;8723;51.502;6.918;2022-07-03T14:40:47;1.83;;;1.10;;
17214;SDS011;8723;51.502;6.918;2022-07-03T14:43:14;2.45;;;1.40;;
17214;SDS011;8723;51.502;6.918;2022-07-03T14:45:41;2.60;;;1.30;;
17214;SDS011;8723;51.502;6.918;2022-07-03T14:48:09;1.70;;;1.13;;
17214;SDS011;8723;51.502;6.918;2022-07-03T14:50:36;1.75;;;1.20;;
17214;SDS011;8723;51.502;6.918;2022-07-03T14:53:04;1.48;;;1.20;;
17214;SDS011;8723;51.502;6.918;2022-07-03T14:55:37;2.35;;;1.00;;
17214;SDS011;8723;51.502;6.918;2022-07-03T14:58:08;2.87;;;1.20;;
17214;SDS011;8723;51.502;6.918;2022-07-03T15:00:39;2.00;;;1.40;;
17214;SDS011;8723;51.502;6.918;2022-07-03T15:03:08;2.08;;;1.15;;
17214;SDS011;8723;51.502;6.918;2022-07-03T15:05:42;1.23;;;1.10;;
17214;SDS011;8723;51.502;6.918;2022-07-03T15:08:13;3.00;;;1.52;;
17214;SDS011;8723;51.502;6.918;2022-07-03T15:10:43;1.70;;;1.30;;
17214;SDS011;8723;51.502;6.918;2022-07-03T15:13:10;1.85;;;1.40;;
17214;SDS011;8723;51.502;6.918;2022-07-03T15:15:40;2.28;;;1.13;;
17214;SDS011;8723;51.502;6.918;2022-07-03T15:18:09;2.17;;;1.25;;
17214;SDS011;8723;51.502;6.918;2022-07-03T15:20:37;2.70;;;1.00;;
17214;SDS011;8723;51.502;6.918;2022-07-03T15:23:04;1.60;;;1.05;;
17214;SDS011;8723;51.502;6.918;2022-07-03T15:25:32;1.98;;;1.00;;